Terminal Aerodrome Forecast
Issued by NWS Knoxville/Tri Cities, TN

Home | Current Version | Previous Version | Text Only | Print | Product List | Glossary On
Versions: 1 2 3 4 5 6 7 8 9 10 11 12 13 14 15 16 17
000
FTUS44 KMRX 280756 AAA
TAFTRI
TAF AMD
KTRI 280756Z 2808/2906 00000KT 1/4SM FG BKN001
     FM281200 00000KT 4SM BR SCT002
     FM281300 VRB04KT P6SM SCT040 BKN250
     FM290100 00000KT P6SM SCT070 BKN200=

USA.gov is the U.S. government's official web portal to all federal, state and local government web resources and services.